LPOV Airport Information

Runway Information
Runway 18 Length 8005 ft width 148 ft
Elevation 44 ft Threshold 0 ft Heading 176
Runway 36 Length 8005 ft Width 148 ft
Elevation 56 ft Threshold 0 ft Heading 356
Airport Frequencies
Type APP Name APP Frequency 118.6 MHZ
Type TWR Name TWR Frequency 122.1 MHZ
Airport Navaids
Type TACAN Name Ovar Frequency 110600 KHZ
Airport Weather Information & NOTAM
ADDS - METARS form results

(0618 UTC 19 August 2018)
 
METAR text: LPOV 190600Z 05006KT CAVOK 21/08 Q1016
Conditions at: LPOV (OVAR MIL , PT) observed 0600 UTC 19 August 2018
Temperature: 21.0°C (70°F)
Dewpoint: 8.0°C (46°F) [RH = 43%]
Pressure (altimeter): 30.00 inches Hg (1016.0 mb)
Winds: from the NE (50 degrees) at 7 MPH (6 knots; 3.1 m/s)
Visibility: 6 or more miles (10+ km)
Ceiling: ceiling and visibility are OK
Clouds: unknown
Weather: no significant weather observed at this time